Time;durP1;ratioP1;P1;durP2;ratioP2;P2;SDS_P1;SDS_P2;PMS_P1;PMS_P2;Temp;Humidity;BMP_temperature;BMP_pressure;BME280_temperature;BME280_humidity;BME280_pressure;Samples;Min_cycle;Max_cycle;Signal;HPM_P1;HPM_P2
2021/12/08 00:01:31;;;;;;;4.47;4.17;;;1.20;99.90;;;2.07;88.52;96548.69;5244888;28;20197;-61
2021/12/08 00:04:05;;;;;;;4.87;4.33;;;1.20;99.90;;;2.10;88.74;96539.69;5255132;28;20257;-61
2021/12/08 00:06:38;;;;;;;4.60;4.20;;;1.20;99.90;;;2.08;88.26;96533.66;5255726;28;20213;-61
2021/12/08 00:09:26;;;;;;;5.20;4.80;;;1.20;99.90;;;1.95;87.80;96523.53;5255312;28;20297;-61
2021/12/08 00:14:50;;;;;;;4.40;4.10;;;1.20;99.90;;;2.10;87.90;96513.63;5252872;28;20249;-61
2021/12/08 00:17:24;;;;;;;4.43;4.13;;;1.20;99.90;;;2.20;85.44;96506.78;5259370;28;20199;-61
2021/12/08 00:20:01;;;;;;;5.37;4.97;;;1.30;99.90;;;2.19;86.25;96497.44;5247325;28;20196;-61
2021/12/08 00:22:34;;;;;;;4.93;4.47;;;1.40;99.90;;;2.22;82.12;96499.31;5254807;28;20204;-61
2021/12/08 00:25:08;;;;;;;5.80;5.20;;;1.30;99.90;;;2.21;84.03;96502.59;5249872;28;20265;-61
2021/12/08 00:27:41;;;;;;;4.30;3.90;;;1.40;99.90;;;2.19;83.38;96499.97;5258494;28;20280;-61
2021/12/08 00:30:15;;;;;;;4.67;4.30;;;1.40;99.90;;;2.20;82.94;96493.28;5246782;28;20192;-61
2021/12/08 00:32:51;;;;;;;4.30;4.00;;;1.40;99.90;;;2.29;81.75;96490.50;5254258;28;20220;-61
2021/12/08 00:35:24;;;;;;;4.50;4.10;;;1.50;99.90;;;2.43;77.76;96494.78;5251832;28;20232;-60
2021/12/08 00:37:59;;;;;;;5.67;4.37;;;1.60;99.90;;;2.53;78.32;96498.81;5247151;28;20211;-61
2021/12/08 00:40:34;;;;;;;6.03;5.27;;;1.60;99.90;;;2.55;80.70;96515.78;5242181;28;20214;-61
2021/12/08 00:43:07;;;;;;;7.20;5.33;;;1.70;99.90;;;2.46;83.33;96507.59;5253696;28;20282;-61
2021/12/08 00:45:41;;;;;;;5.13;4.70;;;1.70;99.90;;;2.39;83.18;96508.84;5253560;28;20593;-61
2021/12/08 00:48:16;;;;;;;4.40;4.20;;;1.60;99.90;;;2.40;82.16;96509.72;5255266;28;20590;-61
2021/12/08 00:50:51;;;;;;;4.57;4.17;;;1.60;99.90;;;2.44;81.45;96512.56;5246451;28;20666;-61
2021/12/08 00:53:24;;;;;;;4.80;4.47;;;1.60;99.90;;;2.68;75.23;96502.31;5244771;28;20225;-61
2021/12/08 00:55:57;;;;;;;5.43;4.97;;;1.90;99.90;;;2.74;74.79;96501.84;5251840;28;20573;-61
2021/12/08 00:58:31;;;;;;;3.80;3.50;;;2.00;99.90;;;3.05;69.32;96494.59;5254813;28;20288;-61
2021/12/08 01:01:06;;;;;;;4.10;3.80;;;2.30;99.90;;;3.13;69.40;96504.41;5246286;28;20578;-61
2021/12/08 01:03:41;;;;;;;4.40;4.10;;;2.40;99.90;;;3.01;69.40;96493.53;5235523;28;20201;-61
2021/12/08 01:06:14;;;;;;;4.27;3.97;;;2.50;99.90;;;3.10;67.15;96494.09;5239762;28;20203;-61
2021/12/08 01:08:48;;;;;;;4.27;4.07;;;2.60;99.90;;;3.17;67.08;96491.16;5249178;28;20251;-61
2021/12/08 01:11:22;;;;;;;3.50;3.30;;;2.60;99.90;;;3.24;67.29;96494.97;5239398;28;20223;-61
2021/12/08 01:13:55;;;;;;;4.00;3.70;;;2.70;99.90;;;3.21;66.52;96492.25;5241232;28;20226;-61
2021/12/08 01:16:28;;;;;;;3.87;3.60;;;2.60;99.90;;;3.21;67.72;96488.88;5252845;28;20196;-61
2021/12/08 01:19:03;;;;;;;4.40;4.00;;;2.50;99.90;;;3.19;69.38;96487.91;5258871;28;20392;-61
2021/12/08 01:21:38;;;;;;;4.20;3.90;;;2.50;99.90;;;3.28;68.34;96481.75;5257823;28;20201;-61
2021/12/08 01:24:11;;;;;;;3.70;3.40;;;2.50;99.90;;;3.05;70.10;96479.44;5250763;28;20226;-61
2021/12/08 01:26:44;;;;;;;4.30;4.00;;;2.40;99.90;;;2.91;71.87;96481.09;5248618;28;20194;-62
2021/12/08 01:29:17;;;;;;;4.37;4.07;;;2.40;99.90;;;2.73;73.05;96469.84;5252941;28;20198;-61
2021/12/08 01:31:50;;;;;;;4.10;3.80;;;2.20;99.90;;;2.56;76.78;96467.09;5254618;28;20221;-61
2021/12/08 01:34:25;;;;;;;3.90;3.60;;;2.10;99.90;;;2.49;77.98;96459.91;5267180;28;20303;-61
2021/12/08 01:36:58;;;;;;;3.53;3.30;;;2.00;99.90;;;2.40;79.41;96460.16;5253622;28;20199;-61
2021/12/08 01:39:31;;;;;;;3.80;3.60;;;2.00;99.90;;;2.30;81.43;96467.06;5248612;28;20665;-60
2021/12/08 01:42:06;;;;;;;4.20;3.80;;;1.80;99.90;;;2.31;82.49;96472.19;5247655;28;20192;-61
2021/12/08 01:47:31;;;;;;;3.77;3.57;;;1.80;99.90;;;2.15;84.77;96475.34;5254949;28;20197;-61
2021/12/08 01:50:07;;;;;;;4.20;3.90;;;1.70;99.90;;;2.18;86.12;96479.72;5260710;28;20196;-61
2021/12/08 01:52:41;;;;;;;3.87;3.67;;;1.70;99.90;;;2.10;85.47;96476.69;5247263;28;20219;-62
2021/12/08 01:55:14;;;;;;;4.30;4.00;;;1.60;99.90;;;2.02;86.14;96470.25;5243446;28;20271;-62
2021/12/08 01:57:49;;;;;;;4.17;3.87;;;1.60;99.90;;;1.96;88.05;96477.41;5252709;28;20622;-63
2021/12/08 02:00:29;;;;;;;3.57;3.33;;;1.50;99.90;;;1.92;89.73;96475.47;5252179;28;20195;-63
2021/12/08 02:03:02;;;;;;;3.87;3.57;;;1.50;99.90;;;1.93;90.95;96465.47;5246978;28;20291;-64
2021/12/08 02:05:37;;;;;;;3.87;3.67;;;1.50;99.90;;;1.90;91.52;96474.47;5251832;28;20227;-64
2021/12/08 02:08:10;;;;;;;3.80;3.50;;;1.40;99.90;;;1.86;92.71;96482.59;5255956;28;20226;-64
2021/12/08 02:10:44;;;;;;;4.30;3.90;;;1.40;99.90;;;1.83;93.59;96482.38;5256274;28;20626;-63
2021/12/08 02:13:18;;;;;;;3.97;3.70;;;1.30;99.90;;;1.80;94.65;96478.91;5252765;28;20208;-63
2021/12/08 02:15:51;;;;;;;4.20;3.97;;;1.30;99.90;;;1.79;95.01;96484.69;5241821;28;20305;-64
2021/12/08 02:18:24;;;;;;;4.50;4.10;;;1.20;99.90;;;1.74;95.99;96482.63;5257796;28;20200;-63
2021/12/08 02:21:01;;;;;;;4.80;4.40;;;1.20;99.90;;;1.68;96.96;96483.09;5249792;28;20200;-63
2021/12/08 02:23:34;;;;;;;3.77;3.47;;;1.20;99.90;;;1.66;98.38;96468.63;5248795;28;20192;-63
2021/12/08 02:26:08;;;;;;;3.97;3.77;;;1.20;99.90;;;1.64;98.93;96467.69;5256123;28;20200;-63
2021/12/08 02:28:41;;;;;;;4.03;3.83;;;1.10;99.90;;;1.64;98.72;96465.16;5251817;28;20648;-63
2021/12/08 02:31:21;;;;;;;4.33;4.03;;;1.10;99.90;;;1.63;100.00;96459.25;5249700;28;20196;-62
2021/12/08 02:48:10;;;;;;;4.67;4.37;;;1.20;99.90;;;1.80;100.00;96447.78;5250242;28;20204;-62
2021/12/08 02:50:45;;;;;;;4.93;4.60;;;1.20;99.90;;;1.83;100.00;96440.44;5255247;28;20193;-62
2021/12/08 02:53:19;;;;;;;5.20;4.73;;;1.20;99.90;;;1.80;100.00;96435.19;5249831;28;20233;-62
2021/12/08 02:55:52;;;;;;;4.27;3.97;;;1.20;99.90;;;1.76;100.00;96436.63;5255917;28;20216;-62
2021/12/08 02:58:26;;;;;;;4.80;4.40;;;1.20;99.90;;;1.92;100.00;96436.03;5246507;28;20195;-62
2021/12/08 03:01:03;;;;;;;5.80;4.90;;;1.30;99.90;;;1.78;100.00;96432.59;5245403;28;20233;-61
2021/12/08 03:03:38;;;;;;;5.47;4.93;;;1.20;99.90;;;1.88;100.00;96431.53;5248336;28;20238;-62
2021/12/08 03:06:12;;;;;;;5.53;5.13;;;1.30;99.90;;;1.90;100.00;96434.19;5248119;28;20192;-62
2021/12/08 03:08:47;;;;;;;4.83;4.43;;;1.30;99.90;;;1.98;100.00;96438.09;5249117;28;20215;-62
2021/12/08 03:11:20;;;;;;;5.37;4.87;;;1.40;99.90;;;1.96;100.00;96434.56;5247685;28;20198;-63
2021/12/08 03:14:06;;;;;;;6.27;5.17;;;1.40;99.90;;;1.99;100.00;96424.69;5260417;28;20224;-62
2021/12/08 03:16:43;;;;;;;5.87;5.40;;;1.40;99.90;;;1.99;100.00;96437.28;5240945;28;20226;-62
2021/12/08 03:19:17;;;;;;;5.43;5.00;;;1.40;99.90;;;2.00;100.00;96439.03;5256685;28;20200;-62
2021/12/08 03:21:51;;;;;;;4.97;4.47;;;1.50;99.90;;;2.01;100.00;96438.28;5262508;28;20200;-61
2021/12/08 03:24:30;;;;;;;5.23;4.83;;;1.40;99.90;;;2.05;100.00;96435.19;5252562;28;20216;-62
2021/12/08 03:27:09;;;;;;;5.33;4.93;;;1.50;99.90;;;2.13;100.00;96434.03;5248487;28;20192;-62
2021/12/08 03:29:49;;;;;;;5.33;4.97;;;1.50;99.90;;;2.07;100.00;96441.19;5249004;28;20790;-62
2021/12/08 03:32:33;;;;;;;6.33;5.70;;;1.40;99.90;;;2.09;100.00;96442.19;5255651;28;20677;-62
2021/12/08 03:35:12;;;;;;;5.73;5.30;;;1.40;99.90;;;2.04;100.00;96430.94;5251887;28;20990;-61
2021/12/08 03:37:48;;;;;;;5.77;5.20;;;1.40;99.90;;;2.05;100.00;96440.22;5262029;28;20666;-62
2021/12/08 03:40:26;;;;;;;6.07;5.40;;;1.40;99.90;;;2.11;100.00;96443.13;5248075;28;20200;-62
2021/12/08 03:42:59;;;;;;;6.13;5.53;;;1.40;99.90;;;2.08;100.00;96450.50;5248540;28;20206;-62
2021/12/08 03:45:37;;;;;;;6.17;5.67;;;1.40;99.90;;;2.08;100.00;96452.16;5244982;28;20229;-62
2021/12/08 03:48:18;;;;;;;5.80;5.37;;;1.40;99.90;;;2.10;100.00;96456.53;5255472;28;20211;-62
2021/12/08 03:50:53;;;;;;;5.53;5.13;;;1.40;99.90;;;2.07;100.00;96446.25;5248936;28;20192;-62
2021/12/08 03:53:26;;;;;;;5.80;5.43;;;1.40;99.90;;;2.12;100.00;96457.50;5247706;28;20687;-62
2021/12/08 03:56:01;;;;;;;6.20;5.70;;;1.40;99.90;;;2.13;100.00;96456.72;5257668;28;20301;-61
2021/12/08 03:58:34;;;;;;;6.70;5.47;;;1.40;99.90;;;2.19;100.00;96449.56;5256439;28;20219;-63
2021/12/08 04:01:09;;;;;;;5.97;5.50;;;1.40;99.90;;;2.27;100.00;96470.25;5251050;28;20196;-63
2021/12/08 04:03:48;;;;;;;5.60;5.10;;;1.40;99.90;;;2.20;100.00;96461.41;5249155;28;20558;-62
2021/12/08 04:06:31;;;;;;;5.60;5.10;;;1.40;99.90;;;2.16;100.00;96454.41;5249710;28;20620;-62
2021/12/08 04:09:13;;;;;;;5.93;5.37;;;1.40;99.90;;;2.15;100.00;96455.19;5251904;28;20203;-63
2021/12/08 04:11:47;;;;;;;6.60;6.10;;;1.40;99.90;;;2.04;100.00;96453.59;5255494;28;20299;-63
2021/12/08 04:14:25;;;;;;;6.93;5.13;;;1.40;99.90;;;2.03;100.00;96456.88;5246058;28;20265;-62
2021/12/08 04:17:05;;;;;;;6.43;5.77;;;1.40;99.90;;;2.06;100.00;96446.13;5252071;28;20214;-62
2021/12/08 04:19:41;;;;;;;5.70;5.20;;;1.40;99.90;;;2.10;100.00;96458.19;5247462;28;20204;-62
2021/12/08 04:22:19;;;;;;;5.90;5.33;;;1.50;99.90;;;2.11;100.00;96455.75;5247896;28;20555;-62
2021/12/08 04:24:54;;;;;;;6.47;5.70;;;1.50;99.90;;;2.10;100.00;96453.13;5246953;28;20216;-62
2021/12/08 04:27:32;;;;;;;5.77;5.37;;;1.50;99.90;;;2.09;100.00;96454.78;5255513;28;20583;-61
2021/12/08 04:30:09;;;;;;;7.17;6.00;;;1.50;99.90;;;2.04;100.00;96453.59;5243693;28;20231;-61
2021/12/08 04:32:43;;;;;;;8.73;6.27;;;1.50;99.90;;;2.03;100.00;96449.31;5246937;28;20584;-62
2021/12/08 04:35:20;;;;;;;6.20;5.70;;;1.40;99.90;;;2.02;100.00;96437.50;5253919;28;20227;-62
2021/12/08 04:37:57;;;;;;;5.63;5.00;;;1.40;99.90;;;2.07;100.00;96443.72;5259497;28;20282;-62
2021/12/08 04:40:47;;;;;;;5.33;4.83;;;1.50;99.90;;;2.07;100.00;96426.09;5247764;28;20209;-61
2021/12/08 04:43:27;;;;;;;6.13;5.53;;;1.50;99.90;;;2.12;100.00;96429.78;5235337;28;20203;-62
2021/12/08 04:46:14;;;;;;;7.70;6.90;;;1.50;99.90;;;2.16;100.00;96434.25;5254753;28;20206;-62
2021/12/08 04:49:08;;;;;;;7.33;6.57;;;1.50;99.90;;;2.19;100.00;96439.47;5246300;28;20283;-62
2021/12/08 04:51:50;;;;;;;8.53;7.63;;;1.60;99.90;;;2.19;100.00;96433.56;5257478;28;20547;-62
2021/12/08 05:00:43;;;;;;;7.27;6.57;;;1.50;99.90;;;2.22;100.00;96428.72;5252901;28;20213;-62
2021/12/08 05:03:41;;;;;;;6.77;6.10;;;1.50;99.90;;;2.26;100.00;96425.63;5244137;28;20232;-61
2021/12/08 05:06:37;;;;;;;6.13;5.73;;;1.50;99.90;;;2.21;100.00;96421.97;5255593;28;20184;-61
2021/12/08 05:09:15;;;;;;;8.93;8.10;;;1.50;99.90;;;2.19;100.00;96428.53;5240488;28;20211;-62
2021/12/08 05:11:53;;;;;;;9.63;8.77;;;1.50;99.90;;;2.14;100.00;96415.63;5250007;28;20199;-62
2021/12/08 05:14:31;;;;;;;15.07;13.03;;;1.50;99.90;;;2.13;100.00;96425.63;5243692;28;20220;-60
2021/12/08 05:17:12;;;;;;;12.00;10.80;;;1.50;99.90;;;2.11;100.00;96430.53;5245339;28;20207;-62
2021/12/08 05:19:49;;;;;;;11.10;9.07;;;1.50;99.90;;;2.10;100.00;96438.88;5244948;28;20203;-62
2021/12/08 05:22:26;;;;;;;9.37;8.47;;;1.50;99.90;;;2.12;100.00;96431.41;5258602;28;20226;-63
2021/12/08 05:25:07;;;;;;;9.73;8.77;;;1.50;99.90;;;2.12;100.00;96424.75;5248500;28;20223;-61
2021/12/08 05:27:46;;;;;;;10.20;9.20;;;1.40;99.90;;;2.13;100.00;96441.59;5233629;28;20203;-62
2021/12/08 05:30:25;;;;;;;9.67;8.77;;;1.50;99.90;;;2.17;100.00;96445.19;5243654;28;20204;-62
2021/12/08 05:33:00;;;;;;;9.20;8.30;;;1.50;99.90;;;2.16;100.00;96449.38;5255015;28;20954;-61
2021/12/08 05:35:34;;;;;;;8.10;7.30;;;1.50;99.90;;;2.11;100.00;96444.78;5244616;28;20220;-60
2021/12/08 05:38:07;;;;;;;8.60;7.77;;;1.40;99.90;;;2.13;100.00;96434.03;5241713;28;20670;-59
2021/12/08 05:40:49;;;;;;;7.10;6.47;;;1.50;99.90;;;2.16;100.00;96433.38;5243802;28;20195;-62
2021/12/08 05:43:23;;;;;;;6.50;6.00;;;1.50;99.90;;;2.13;100.00;96439.09;5253449;28;20592;-60
2021/12/08 05:45:57;;;;;;;6.03;5.33;;;1.50;99.90;;;2.13;100.00;96430.66;5248454;28;20224;-58
2021/12/08 05:48:33;;;;;;;6.93;5.73;;;1.50;99.90;;;2.13;100.00;96444.13;5262202;28;20675;-59
2021/12/08 05:51:10;;;;;;;6.07;5.57;;;1.50;99.90;;;2.16;100.00;96449.38;5245178;28;20207;-60
2021/12/08 05:53:47;;;;;;;6.10;5.60;;;1.50;99.90;;;2.20;100.00;96438.72;5245222;28;20552;-60
2021/12/08 05:56:21;;;;;;;6.93;6.40;;;1.60;99.90;;;2.27;100.00;96437.47;5241793;28;20207;-60
2021/12/08 05:58:58;;;;;;;8.03;7.30;;;1.60;99.90;;;2.26;100.00;96443.28;5250780;28;20200;-60
2021/12/08 06:01:36;;;;;;;7.60;6.90;;;1.50;99.90;;;2.24;100.00;96450.75;5257328;28;20196;-60
2021/12/08 06:04:12;;;;;;;7.87;7.07;;;1.60;99.90;;;2.25;100.00;96460.03;5245480;28;20626;-60
2021/12/08 06:06:48;;;;;;;7.53;6.87;;;1.70;99.90;;;2.30;100.00;96456.97;5237306;28;20562;-60
2021/12/08 06:09:23;;;;;;;8.17;7.37;;;1.70;99.90;;;2.33;100.00;96453.00;5241263;28;20283;-60
2021/12/08 06:11:57;;;;;;;7.47;6.77;;;1.70;99.90;;;2.33;100.00;96452.13;5247716;28;20197;-60
2021/12/08 06:14:33;;;;;;;7.27;6.67;;;1.70;99.90;;;2.36;100.00;96453.19;5237328;28;20226;-59
2021/12/08 06:17:13;;;;;;;7.87;7.17;;;1.70;99.90;;;2.41;100.00;96448.47;5240637;28;20295;-60
2021/12/08 06:19:48;;;;;;;8.07;7.27;;;1.70;99.90;;;2.41;100.00;96433.34;5252866;28;20201;-60
2021/12/08 06:22:29;;;;;;;7.87;7.23;;;1.70;99.90;;;2.40;100.00;96426.53;5250465;28;20200;-60
2021/12/08 06:25:04;;;;;;;8.10;7.30;;;1.70;99.90;;;2.41;100.00;96420.72;5238856;28;20219;-60
2021/12/08 06:27:37;;;;;;;8.17;7.37;;;1.80;99.90;;;2.38;100.00;96431.47;5247323;28;20222;-59
2021/12/08 06:30:16;;;;;;;8.27;7.57;;;1.80;99.90;;;2.42;100.00;96430.91;5250089;28;20554;-60
2021/12/08 06:32:50;;;;;;;11.00;9.87;;;1.80;99.90;;;2.39;100.00;96423.13;5249513;28;20292;-58
2021/12/08 06:35:30;;;;;;;8.63;7.83;;;1.80;99.90;;;2.43;100.00;96427.63;5244533;28;20228;-60
2021/12/08 06:38:06;;;;;;;10.17;9.27;;;1.80;99.90;;;2.43;100.00;96432.66;5245755;28;20288;-60
2021/12/08 06:40:44;;;;;;;10.23;9.13;;;1.80;99.90;;;2.47;100.00;96441.28;5248180;28;20195;-59
2021/12/08 06:43:27;;;;;;;9.50;8.70;;;1.80;99.90;;;2.50;100.00;96430.53;5252656;28;20192;-60
2021/12/08 06:46:02;;;;;;;9.07;8.33;;;1.80;99.90;;;2.46;100.00;96430.34;5255265;28;20195;-60
2021/12/08 06:48:40;;;;;;;9.13;8.00;;;1.80;99.90;;;2.39;100.00;96424.78;5259890;28;20200;-59
2021/12/08 06:51:19;;;;;;;8.33;7.57;;;1.70;99.90;;;2.35;100.00;96430.41;5249041;28;20197;-58
2021/12/08 06:53:58;;;;;;;7.00;6.40;;;1.70;99.90;;;2.38;100.00;96428.09;5242498;28;20226;-60
2021/12/08 06:56:36;;;;;;;6.47;5.93;;;1.70;99.90;;;2.42;100.00;96424.97;5247894;28;20653;-60
2021/12/08 06:59:14;;;;;;;6.93;6.43;;;1.80;99.90;;;2.40;100.00;96419.81;5247842;28;20227;-60
2021/12/08 07:01:59;;;;;;;7.07;6.20;;;1.80;99.90;;;2.44;100.00;96415.88;5247905;28;20203;-60
2021/12/08 07:04:52;;;;;;;7.67;7.00;;;1.80;99.90;;;2.46;100.00;96424.41;5254813;28;20223;-60
2021/12/08 07:07:30;;;;;;;8.13;7.43;;;1.80;99.90;;;2.48;100.00;96427.91;5244253;28;20190;-61
2021/12/08 07:10:10;;;;;;;7.00;6.40;;;1.90;99.90;;;2.51;100.00;96438.19;5248820;28;20201;-60
2021/12/08 07:12:48;;;;;;;7.30;6.70;;;1.90;99.90;;;2.53;100.00;96446.72;5239799;28;20207;-60
2021/12/08 07:15:28;;;;;;;6.63;5.93;;;1.90;99.90;;;2.55;100.00;96454.38;5261455;28;20675;-61
2021/12/08 07:18:05;;;;;;;6.80;6.13;;;1.80;99.90;;;2.51;100.00;96463.41;5250687;28;20223;-61
2021/12/08 07:20:46;;;;;;;7.07;6.47;;;1.80;99.90;;;2.50;100.00;96450.72;5248709;28;20292;-60
2021/12/08 07:23:25;;;;;;;6.47;5.97;;;1.80;99.90;;;2.43;100.00;96454.44;5256353;28;20684;-61
2021/12/08 07:26:00;;;;;;;5.50;5.10;;;1.80;99.90;;;2.47;100.00;96469.03;5248640;28;20198;-60
2021/12/08 07:28:34;;;;;;;9.17;8.13;;;1.80;99.90;;;2.44;100.00;96466.31;5248798;28;20208;-60
2021/12/08 07:31:13;;;;;;;8.83;7.93;;;1.80;99.90;;;2.42;100.00;96467.84;5241743;28;20204;-61
2021/12/08 07:33:47;;;;;;;8.30;7.03;;;1.80;99.90;;;2.38;100.00;96459.22;5243911;28;20192;-60
2021/12/08 07:36:23;;;;;;;7.20;6.40;;;1.80;99.90;;;2.35;100.00;96455.63;5260414;28;20638;-62
2021/12/08 07:39:00;;;;;;;6.57;6.07;;;1.70;99.90;;;2.36;100.00;96457.38;5241904;28;20203;-62
2021/12/08 07:41:38;;;;;;;7.47;6.77;;;1.80;99.90;;;2.38;100.00;96453.31;5246048;28;20598;-62
2021/12/08 07:44:15;;;;;;;6.47;5.87;;;1.80;99.90;;;2.36;100.00;96449.81;5244537;28;20299;-62
2021/12/08 07:46:51;;;;;;;6.50;5.90;;;1.80;99.90;;;2.43;100.00;96442.75;5246756;28;20196;-61
2021/12/08 07:49:28;;;;;;;6.97;6.30;;;1.80;99.90;;;2.59;100.00;96436.16;5257863;28;20200;-60
2021/12/08 07:52:06;;;;;;;6.87;6.33;;;1.90;99.90;;;2.52;100.00;96445.00;5253110;28;20288;-61
2021/12/08 07:54:41;;;;;;;6.30;5.80;;;1.90;99.90;;;2.46;100.00;96452.13;5246688;28;20914;-60
2021/12/08 07:57:21;;;;;;;7.10;6.50;;;1.80;99.90;;;2.44;100.00;96451.19;5257542;28;20224;-62
2021/12/08 08:00:00;;;;;;;9.67;8.67;;;1.80;99.90;;;2.42;100.00;96442.63;5244275;28;20209;-62
2021/12/08 08:02:34;;;;;;;9.17;8.27;;;1.80;99.90;;;2.41;100.00;96438.38;5250325;28;20207;-62
2021/12/08 08:05:09;;;;;;;10.27;9.17;;;1.80;99.90;;;2.42;100.00;96435.06;5252651;22;20307;-63
2021/12/08 08:07:43;;;;;;;9.10;8.30;;;1.80;99.90;;;2.50;100.00;96441.50;5251379;28;20227;-63
2021/12/08 08:10:18;;;;;;;10.57;9.57;;;1.90;99.90;;;2.57;100.00;96431.00;5251747;28;20198;-62
2021/12/08 08:12:57;;;;;;;19.40;14.87;;;2.00;99.90;;;2.60;100.00;96427.81;5247041;28;20204;-62
2021/12/08 08:15:39;;;;;;;16.07;13.97;;;2.10;99.90;;;2.71;100.00;96427.72;5238877;28;20255;-62
2021/12/08 08:18:14;;;;;;;14.17;11.60;;;2.20;99.90;;;2.83;100.00;96424.22;5231490;28;20197;-61
2021/12/08 08:20:53;;;;;;;13.87;12.37;;;2.30;99.90;;;2.96;100.00;96414.13;5216986;28;20680;-61
2021/12/08 08:23:31;;;;;;;14.53;12.33;;;2.50;99.90;;;3.04;100.00;96407.91;5225295;28;20205;-61
2021/12/08 08:26:10;;;;;;;14.63;11.87;;;2.60;99.90;;;3.14;100.00;96410.22;5230266;28;20282;-61
2021/12/08 08:28:50;;;;;;;15.47;13.17;;;2.70;99.90;;;3.28;100.00;96398.44;5223400;28;20198;-61
2021/12/08 08:31:30;;;;;;;17.83;15.07;;;2.70;99.90;;;3.34;100.00;96395.41;5227940;28;20219;-61
2021/12/08 08:34:04;;;;;;;17.17;14.83;;;2.80;99.90;;;3.35;100.00;96399.69;5223497;28;20617;-60
2021/12/08 08:36:43;;;;;;;16.13;13.53;;;2.90;99.90;;;3.40;100.00;96403.34;5224198;28;20581;-60
2021/12/08 08:39:21;;;;;;;15.57;13.53;;;2.90;99.90;;;3.50;100.00;96399.75;5224993;28;20223;-60
2021/12/08 08:42:01;;;;;;;16.23;13.93;;;2.90;99.90;;;3.51;100.00;96397.31;5223612;28;20207;-60
2021/12/08 08:44:41;;;;;;;15.80;13.17;;;3.00;99.90;;;3.57;100.00;96392.59;5224023;28;20224;-60
2021/12/08 08:47:22;;;;;;;15.80;14.10;;;3.00;99.90;;;3.58;100.00;96391.84;5220791;28;20199;-60
2021/12/08 08:49:56;;;;;;;15.17;13.10;;;3.10;99.90;;;3.54;100.00;96382.31;5223861;28;20202;-60
2021/12/08 08:52:36;;;;;;;15.63;13.97;;;3.00;99.90;;;3.63;100.00;96383.66;5224008;28;20205;-60
2021/12/08 08:55:15;;;;;;;15.27;13.57;;;3.10;99.90;;;3.66;100.00;96387.22;5218756;28;20807;-60
2021/12/08 08:57:50;;;;;;;15.27;13.50;;;3.10;99.90;;;3.67;100.00;96390.66;5220362;28;20205;-60
2021/12/08 09:00:33;;;;;;;15.03;13.17;;;3.10;99.90;;;3.72;100.00;96382.56;5224788;28;20210;-60
2021/12/08 09:03:12;;;;;;;13.60;12.23;;;3.20;99.90;;;3.81;100.00;96379.72;5230612;28;20213;-60
2021/12/08 09:05:54;;;;;;;12.87;11.40;;;3.20;99.90;;;3.92;100.00;96388.78;5224969;28;20316;-60
2021/12/08 09:08:30;;;;;;;12.83;11.63;;;3.40;99.90;;;4.02;100.00;96401.16;5225130;28;20201;-60
2021/12/08 09:11:12;;;;;;;12.60;11.50;;;3.50;99.90;;;4.13;100.00;96413.56;5227307;28;20254;-60
2021/12/08 09:13:52;;;;;;;13.53;12.20;;;3.50;99.90;;;4.19;100.00;96431.63;5239164;28;20292;-60
2021/12/08 09:16:34;;;;;;;15.47;12.77;;;3.40;99.90;;;4.18;100.00;96424.81;5228354;28;20231;-60
2021/12/08 09:19:14;;;;;;;15.33;12.37;;;3.40;99.90;;;4.20;100.00;96415.66;5230386;28;20212;-60
2021/12/08 09:22:00;;;;;;;17.13;12.87;;;3.30;99.90;;;4.16;100.00;96432.31;5225488;28;20298;-60
2021/12/08 09:24:59;;;;;;;18.20;15.70;;;3.40;99.90;;;4.22;100.00;96432.66;5221414;28;20303;-60
2021/12/08 09:27:37;;;;;;;18.63;16.33;;;3.30;99.90;;;4.20;100.00;96434.22;5226523;28;20197;-60
2021/12/08 09:30:17;;;;;;;18.43;16.50;;;3.30;99.90;;;4.14;100.00;96435.53;5224311;28;20291;-60
2021/12/08 09:32:55;;;;;;;16.43;14.17;;;3.30;99.90;;;4.13;100.00;96431.25;5227930;28;20456;-60
2021/12/08 09:35:32;;;;;;;15.47;13.27;;;3.40;99.90;;;4.17;100.00;96450.88;5224327;28;20229;-60
2021/12/08 09:38:12;;;;;;;16.70;14.97;;;3.40;99.90;;;4.22;100.00;96457.94;5223963;28;20295;-60
2021/12/08 09:40:57;;;;;;;22.90;17.27;;;3.40;99.90;;;4.20;100.00;96436.75;5224109;28;20296;-60
2021/12/08 09:43:36;;;;;;;16.50;14.37;;;3.40;99.90;;;4.20;100.00;96428.28;5225641;28;20201;-60
2021/12/08 09:46:16;;;;;;;15.80;14.13;;;3.50;99.90;;;4.25;100.00;96435.38;5229606;28;20563;-60
2021/12/08 09:48:52;;;;;;;14.67;13.20;;;3.50;99.90;;;4.28;100.00;96427.09;5216327;28;20664;-60
2021/12/08 09:51:27;;;;;;;14.37;12.87;;;3.50;99.90;;;4.31;100.00;96432.31;5240675;28;20636;-60
2021/12/08 09:54:01;;;;;;;14.57;13.20;;;3.60;99.90;;;4.34;100.00;96429.09;5232752;28;20224;-60
2021/12/08 09:56:34;;;;;;;18.10;14.60;;;3.60;99.90;;;4.32;100.00;96416.38;5226947;28;20312;-60
2021/12/08 09:59:10;;;;;;;12.90;11.70;;;3.60;99.90;;;4.22;100.00;96402.31;5223585;28;20208;-60
2021/12/08 10:01:45;;;;;;;12.57;11.27;;;3.50;99.90;;;4.18;100.00;96399.53;5225365;28;20293;-58
2021/12/08 10:04:20;;;;;;;12.93;11.77;;;3.40;99.90;;;4.24;100.00;96404.94;5232732;28;20698;-60
2021/12/08 10:07:02;;;;;;;14.83;13.53;;;3.50;99.90;;;4.29;100.00;96401.91;5239145;28;20589;-59
2021/12/08 10:09:35;;;;;;;16.00;14.37;;;3.60;99.90;;;4.31;100.00;96401.97;5236987;28;20577;-60
2021/12/08 10:12:09;;;;;;;13.23;12.07;;;3.60;99.90;;;4.33;100.00;96402.94;5228950;28;20249;-60
2021/12/08 10:14:46;;;;;;;11.83;10.73;;;3.60;99.90;;;4.36;100.00;96394.66;5236646;28;20304;-59
2021/12/08 10:17:21;;;;;;;11.37;10.37;;;3.60;99.90;;;4.38;100.00;96388.91;5226944;28;20228;-60
2021/12/08 10:20:14;;;;;;;16.07;14.40;;;3.60;99.90;;;4.43;100.00;96396.72;5228808;28;20207;-60
2021/12/08 10:23:08;;;;;;;15.73;14.23;;;3.60;99.90;;;4.41;100.00;96403.38;5218924;28;20569;-60
2021/12/08 10:25:46;;;;;;;28.00;18.17;;;3.60;99.90;;;4.42;100.00;96400.94;5227782;28;20310;-58
2021/12/08 10:28:22;;;;;;;70.40;33.00;;;3.60;99.90;;;4.43;100.00;96405.19;5228300;28;20276;-60
2021/12/08 10:31:02;;;;;;;34.80;23.93;;;3.60;99.90;;;4.42;100.00;96416.09;5228694;28;20239;-60
2021/12/08 10:34:03;;;;;;;28.77;21.30;;;3.60;99.90;;;4.42;100.00;96415.22;5227219;28;20247;-58
2021/12/08 10:36:46;;;;;;;22.50;18.87;;;3.60;99.90;;;4.44;100.00;96414.53;5226430;28;20315;-60
2021/12/08 10:39:28;;;;;;;23.60;19.47;;;3.60;99.90;;;4.47;100.00;96418.91;5227853;28;20197;-58
2021/12/08 10:42:14;;;;;;;20.70;18.27;;;3.60;99.90;;;4.43;100.00;96407.72;5233964;28;20293;-60
2021/12/08 10:44:56;;;;;;;18.60;16.60;;;3.60;99.90;;;4.43;100.00;96402.66;5224574;28;20700;-59
2021/12/08 10:47:35;;;;;;;23.00;20.53;;;3.60;99.90;;;4.45;100.00;96395.16;5230492;28;20677;-59
2021/12/08 10:56:02;;;;;;;22.77;17.23;;;3.60;99.90;;;4.47;100.00;96371.72;5221615;28;20254;-60
2021/12/08 10:58:39;;;;;;;25.17;19.13;;;3.60;99.90;;;4.47;100.00;96364.13;5232694;28;20303;-60
2021/12/08 11:01:17;;;;;;;53.03;48.40;;;3.70;99.90;;;4.47;100.00;96356.53;5224738;28;20621;-60
2021/12/08 11:04:01;;;;;;;91.90;72.47;;;3.70;99.90;;;4.51;100.00;96344.91;5220605;28;20189;-60
2021/12/08 11:06:38;;;;;;;33.37;27.63;;;3.70;99.90;;;4.51;100.00;96338.19;5227864;28;20231;-60
2021/12/08 11:09:16;;;;;;;19.07;17.07;;;3.70;99.90;;;4.54;100.00;96347.63;5233097;28;20207;-60
2021/12/08 11:11:49;;;;;;;36.70;25.27;;;3.70;99.90;;;4.58;100.00;96346.13;5222593;28;20206;-60
2021/12/08 11:14:22;;;;;;;89.83;44.00;;;3.80;99.90;;;4.58;100.00;96334.38;5224918;28;20668;-60
2021/12/08 11:16:55;;;;;;;58.20;36.53;;;3.70;99.90;;;4.59;100.00;96337.75;5221917;28;20259;-60
2021/12/08 11:19:28;;;;;;;98.00;47.43;;;3.70;99.90;;;4.62;100.00;96337.94;5225775;28;20212;-60
2021/12/08 11:22:06;;;;;;;39.43;27.27;;;3.80;99.90;;;4.63;100.00;96339.66;5221149;28;20198;-60
2021/12/08 11:24:46;;;;;;;27.90;22.03;;;3.80;99.90;;;4.66;100.00;96335.63;5234454;28;20474;-60
2021/12/08 11:27:30;;;;;;;30.37;24.17;;;3.80;99.90;;;4.67;100.00;96336.53;5231108;28;20198;-60
2021/12/08 11:30:15;;;;;;;37.90;27.37;;;3.80;99.90;;;4.69;100.00;96340.88;5230557;28;20189;-60
2021/12/08 11:32:48;;;;;;;57.77;36.10;;;3.90;99.90;;;4.72;100.00;96346.13;5220472;28;20208;-60
2021/12/08 11:35:22;;;;;;;37.33;26.43;;;3.90;99.90;;;4.74;100.00;96331.84;5222274;28;20417;-60
2021/12/08 11:38:01;;;;;;;132.60;62.60;;;4.00;99.90;;;4.78;100.00;96327.84;5226144;28;20350;-60